»·PEaware :: ASA356 KSFO-KLAX

ASA356 :: KSFO-KLAX

FLIGHT INFORMATION

Flight Status: Arrived
Operator:
Alaska Airlines
More flights by this operator :: More flights under this callsign
Pilot: Clay B. (17061)
Aircraft: BOEING 737-300
(B733)
More flights by this aircraft type
Origin: KSFO San Francisco Intl
United States
Destination: KLAX Los Angeles Intl
United States
More flights between these airports :: More routes between these airports
Route: +SSTIK4 EBAYE BURGL IRNMN2
File this flight plan on PilotEdge
Remarks: PBN / A1B3B4B5D3D4 DOF / 181201 REG / N372SB EET / KZLA0019 OPR / ASA PER / C RMK / TCAS SIMBRIEF
Altitude:
(Current/Filed)
35,000ft
Speed:
(Current/Filed)
417kts
Departed: 30-Nov-18 07:48 PM
Arrived: 30-Nov-18 08:46 PM
Distance/Time
Traveled:
293nm/0:58
Distance/Time
To Go:
Arrived

Flight Plot

Page will automatically refresh every two minutes.

Flight plan parsing failed; only flown route is shown


Map Options




Map Legend


Flown Route
Filed Route
Departure Airport
Arrival Airport
Navaid (VOR, NDB)
Fix

Horizontal Profiles

Position Reports

Time Latitude Longitude Heading Altitude Ground
Speed
30-Nov-18 19:19 37.618910 -122.385942 170 16ft 0kts
30-Nov-18 19:20 37.618910 -122.385942 170 16ft 0kts
30-Nov-18 19:21 37.618910 -122.385942 170 16ft 0kts
30-Nov-18 19:22 37.618910 -122.385942 170 16ft 0kts
30-Nov-18 19:23 37.618910 -122.385942 170 16ft 0kts
30-Nov-18 19:24 37.618910 -122.385942 170 16ft 0kts
30-Nov-18 19:25 37.618910 -122.385942 170 16ft 0kts
30-Nov-18 19:26 37.618910 -122.385942 170 16ft 0kts
30-Nov-18 19:27 37.618910 -122.385942 170 16ft 0kts
30-Nov-18 19:28 37.618910 -122.385942 170 16ft 0kts
30-Nov-18 19:29 37.618910 -122.385942 170 16ft 0kts
30-Nov-18 19:30 37.618910 -122.385942 170 16ft 0kts
30-Nov-18 19:31 37.618910 -122.385942 170 16ft 0kts
30-Nov-18 19:32 37.618910 -122.385942 170 16ft 0kts
30-Nov-18 19:33 37.619039 -122.385959 175 16ft 2kts
30-Nov-18 19:34 37.619590 -122.386111 156 16ft 2kts
30-Nov-18 19:35 37.619879 -122.386243 73 16ft 1kts
30-Nov-18 19:36 37.619806 -122.386351 44 16ft 0kts
30-Nov-18 19:37 37.619806 -122.386351 44 16ft 0kts
30-Nov-18 19:38 37.619806 -122.386351 44 16ft 0kts
30-Nov-18 19:39 37.619806 -122.386351 44 16ft 0kts
30-Nov-18 19:40 37.619806 -122.386351 44 16ft 0kts
30-Nov-18 19:41 37.619806 -122.386351 44 16ft 0kts
30-Nov-18 19:42 37.619945 -122.386180 43 16ft 8kts
30-Nov-18 19:43 37.620417 -122.385779 28 16ft 0kts
30-Nov-18 19:44 37.620426 -122.385773 28 16ft 0kts
30-Nov-18 19:45 37.619978 -122.382801 118 16ft 18kts
30-Nov-18 19:46 37.616257 -122.379886 206 16ft 16kts
30-Nov-18 19:47 37.612306 -122.382515 207 16ft 22kts
30-Nov-18 19:48 37.609429 -122.384061 131 16ft 11kts
30-Nov-18 19:49 37.609095 -122.383467 121 16ft 0kts
30-Nov-18 19:50 37.609084 -122.383444 121 16ft 1kts
30-Nov-18 19:51 37.612485 -122.379907 27 16ft 100kts
30-Nov-18 19:52 37.659948 -122.363349 358 1694ft 233kts
30-Nov-18 19:53 37.717720 -122.388744 283 5383ft 245kts
30-Nov-18 19:54 37.666065 -122.433968 186 8728ft 294kts
30-Nov-18 19:55 37.584249 -122.448970 195 10030ft 300kts
30-Nov-18 19:56 37.502140 -122.466905 174 10006ft 305kts
30-Nov-18 19:57 37.434813 -122.473708 212 11056ft 339kts
30-Nov-18 19:58 37.354898 -122.428708 102 13921ft 376kts
30-Nov-18 19:59 37.359131 -122.310448 98 16380ft 397kts
30-Nov-18 20:00 37.276028 -122.225327 147 18625ft 429kts
30-Nov-18 20:01 37.199903 -122.107454 129 20781ft 454kts
30-Nov-18 20:02 37.116705 -121.988096 130 22783ft 476kts
30-Nov-18 20:03 37.027963 -121.862035 130 24694ft 497kts
30-Nov-18 20:04 36.991823 -121.810829 130 25430ft 505kts
30-Nov-18 20:05 36.962470 -121.769296 130 26033ft 511kts
30-Nov-18 20:06 36.920779 -121.710406 130 26825ft 519kts
30-Nov-18 20:07 36.827958 -121.580033 130 28372ft 536kts
30-Nov-18 20:08 36.732983 -121.446788 130 30220ft 539kts
30-Nov-18 20:09 36.636087 -121.311285 131 31826ft 545kts
30-Nov-18 20:10 36.537944 -121.174551 131 33349ft 547kts
30-Nov-18 20:11 36.436777 -121.034362 131 34287ft 561kts
30-Nov-18 20:12 36.334535 -120.893287 131 35172ft 553kts
30-Nov-18 20:13 36.234005 -120.754929 130 35109ft 545kts
30-Nov-18 20:14 36.136768 -120.621895 131 35124ft 547kts
30-Nov-18 20:15 36.040807 -120.491031 135 35095ft 511kts
30-Nov-18 20:16 35.945269 -120.361416 135 35134ft 520kts
30-Nov-18 20:17 35.847505 -120.239823 157 35107ft 503kts
30-Nov-18 20:18 35.728141 -120.154487 156 35130ft 507kts
30-Nov-18 20:19 35.613587 -120.068033 156 35113ft 507kts
30-Nov-18 20:20 35.496512 -119.979754 156 35126ft 508kts
30-Nov-18 20:21 35.378048 -119.890710 156 35134ft 508kts
30-Nov-18 20:22 35.260076 -119.798543 149 35128ft 514kts
30-Nov-18 20:23 35.152331 -119.696386 149 35113ft 514kts
30-Nov-18 20:24 35.042095 -119.593683 148 35120ft 515kts
30-Nov-18 20:25 34.930989 -119.490411 149 35097ft 501kts
30-Nov-18 20:26 34.829192 -119.399328 149 35071ft 493kts
30-Nov-18 20:27 34.728675 -119.309759 150 35058ft 494kts
30-Nov-18 20:28 34.618177 -119.213852 150 32781ft 509kts
30-Nov-18 20:29 34.506707 -119.116512 148 29793ft 509kts
30-Nov-18 20:30 34.393215 -119.016958 148 26120ft 512kts
30-Nov-18 20:31 34.281742 -118.918050 145 22286ft 497kts
30-Nov-18 20:32 34.176476 -118.821602 144 19434ft 444kts
30-Nov-18 20:33 34.093270 -118.733006 139 18260ft 389kts
30-Nov-18 20:34 34.023266 -118.642185 102 16154ft 366kts
30-Nov-18 20:35 34.016532 -118.532471 91 14870ft 327kts
30-Nov-18 20:36 34.014247 -118.428611 72 13038ft 307kts
30-Nov-18 20:37 34.029852 -118.333444 79 11251ft 298kts
30-Nov-18 20:38 34.038362 -118.238575 81 9521ft 285kts
30-Nov-18 20:39 34.047316 -118.162713 68 8066ft 272kts
30-Nov-18 20:40 34.055164 -118.075685 82 6469ft 267kts
30-Nov-18 20:41 34.024351 -118.008843 170 5155ft 265kts
30-Nov-18 20:42 33.961372 -118.027804 251 4880ft 250kts
30-Nov-18 20:43 33.964128 -118.100389 274 4304ft 229kts
30-Nov-18 20:44 33.959368 -118.173873 263 3581ft 202kts
30-Nov-18 20:45 33.952131 -118.239229 263 2491ft 187kts
30-Nov-18 20:46 33.946965 -118.289716 263 1637ft 139kts
30-Nov-18 20:47 33.942294 -118.334394 262 919ft 135kts
30-Nov-18 20:48 33.937743 -118.378632 263 205ft 133kts
30-Nov-18 20:49 33.936385 -118.398948 290 117ft 1kts
30-Nov-18 20:50 33.936526 -118.401941 257 122ft 11kts
30-Nov-18 20:51 33.937913 -118.404277 357 127ft 0kts
30-Nov-18 20:52 33.939394 -118.402889 21 124ft 14kts
30-Nov-18 20:53 33.940038 -118.402333 37 124ft 0kts

Navigation Log

Ident Type
Flight plan parsing failed, navigation log unavailable